Time;durP1;ratioP1;P1;durP2;ratioP2;P2;SDS_P1;SDS_P2;PMS_P1;PMS_P2;Temp;Humidity;BMP_temperature;BMP_pressure;BME280_temperature;BME280_humidity;BME280_pressure;Samples;Min_cycle;Max_cycle;Signal;HPM_P1;HPM_P2
2022/08/15 00:02:06;;;;;;;11.95;10.85;;;;;;;22.71;63.04;100028.41;7394282;19;20494;-68
2022/08/15 00:04:35;;;;;;;13.43;12.23;;;;;;;22.66;63.68;100031.50;7392535;19;20038;-68
2022/08/15 00:07:06;;;;;;;13.00;11.90;;;;;;;22.61;63.64;100029.19;7392694;19;20019;-67
2022/08/15 00:09:35;;;;;;;13.27;11.90;;;;;;;22.58;63.80;100029.47;7393277;19;20018;-68
2022/08/15 00:12:06;;;;;;;13.23;11.70;;;;;;;22.54;63.69;100029.84;7394486;19;20018;-67
2022/08/15 00:14:38;;;;;;;12.48;11.18;;;;;;;22.51;63.61;100024.75;7393329;19;20039;-72
2022/08/15 00:17:10;;;;;;;12.10;11.00;;;;;;;22.46;63.91;100025.16;7394808;19;20018;-71
2022/08/15 00:19:44;;;;;;;12.80;11.60;;;;;;;22.44;64.04;100030.63;7394072;19;20021;-71
2022/08/15 00:22:15;;;;;;;12.60;11.30;;;;;;;22.41;63.86;100030.03;7392596;19;20031;-71
2022/08/15 00:24:43;;;;;;;13.43;12.05;;;;;;;22.39;64.11;100029.31;7392259;19;20019;-71
2022/08/15 00:27:14;;;;;;;12.25;11.00;;;;;;;22.37;64.51;100033.91;7392663;19;20021;-71
2022/08/15 00:29:43;;;;;;;12.23;10.93;;;;;;;22.35;64.17;100041.19;7391849;19;20018;-71
2022/08/15 00:32:16;;;;;;;12.90;11.57;;;;;;;22.32;64.68;100036.94;7394028;19;20376;-71
2022/08/15 00:34:44;;;;;;;12.32;11.23;;;;;;;22.27;64.64;100031.16;7392253;19;20485;-71
2022/08/15 00:37:13;;;;;;;16.02;11.48;;;;;;;22.27;64.54;100040.00;7393964;19;20046;-71
2022/08/15 00:39:41;;;;;;;13.73;12.32;;;;;;;22.27;65.04;100036.47;7394567;19;20365;-71
2022/08/15 00:42:11;;;;;;;15.95;11.85;;;;;;;22.24;64.99;100034.06;7398384;19;20031;-71
2022/08/15 00:44:45;;;;;;;12.13;11.00;;;;;;;22.21;65.43;100026.31;7398414;19;20015;-71
2022/08/15 00:47:16;;;;;;;14.85;11.68;;;;;;;22.20;65.30;100029.94;7400128;19;20136;-71
2022/08/15 00:49:46;;;;;;;12.00;10.88;;;;;;;22.17;65.05;100020.34;7400940;19;20357;-71
2022/08/15 00:52:19;;;;;;;12.02;10.88;;;;;;;22.17;65.08;100025.69;7400435;19;20023;-71
2022/08/15 00:54:52;;;;;;;12.25;11.05;;;;;;;22.15;65.42;100024.97;7397901;19;20011;-71
2022/08/15 00:57:24;;;;;;;11.20;10.27;;;;;;;22.15;65.05;100027.63;7401060;19;20022;-71
2022/08/15 00:59:58;;;;;;;12.30;11.10;;;;;;;22.14;65.43;100020.63;7397885;19;20070;-71
2022/08/15 01:02:30;;;;;;;13.00;11.68;;;;;;;22.12;65.30;100025.22;7400617;19;20456;-70
2022/08/15 01:04:59;;;;;;;12.02;10.82;;;;;;;22.07;65.39;100024.75;7397875;19;20019;-71
2022/08/15 01:07:28;;;;;;;12.02;10.93;;;;;;;22.02;65.64;100018.94;7398391;19;20031;-71
2022/08/15 01:09:57;;;;;;;15.88;11.27;;;;;;;21.99;65.72;100019.19;7399901;19;20379;-71
2022/08/15 01:12:28;;;;;;;13.98;11.35;;;;;;;21.96;65.82;100022.94;7400309;19;20022;-71
2022/08/15 01:15:04;;;;;;;13.05;11.77;;;;;;;21.92;65.78;100022.34;7398837;19;20015;-71
2022/08/15 01:17:34;;;;;;;12.77;11.15;;;;;;;21.90;65.87;100012.75;7400431;19;20014;-71
2022/08/15 01:20:11;;;;;;;13.90;11.63;;;;;;;21.89;66.33;100014.59;7400069;19;20011;-71
2022/08/15 01:22:52;;;;;;;12.60;11.30;;;;;;;21.89;66.30;100016.44;7397521;19;20351;-71
2022/08/15 01:25:28;;;;;;;12.15;10.95;;;;;;;21.86;66.63;100012.16;7397460;19;20018;-71
2022/08/15 01:28:03;;;;;;;12.32;11.05;;;;;;;21.85;66.19;100015.84;7397860;19;20027;-70
2022/08/15 01:30:36;;;;;;;12.05;10.80;;;;;;;21.83;66.45;100007.09;7396912;19;20014;-71
2022/08/15 01:33:05;;;;;;;14.18;11.40;;;;;;;21.82;66.89;100008.06;7399807;19;20022;-71
2022/08/15 01:35:40;;;;;;;13.05;11.70;;;;;;;21.80;67.01;100010.84;7399032;19;20031;-71
2022/08/15 01:38:25;;;;;;;12.57;11.27;;;;;;;21.77;66.97;100002.25;7396674;19;20360;-71
2022/08/15 01:41:06;;;;;;;13.52;11.18;;;;;;;21.73;67.68;99998.97;7399758;19;20030;-70
2022/08/15 01:43:40;;;;;;;11.60;10.50;;;;;;;21.71;67.17;99997.38;7396793;19;20014;-71
2022/08/15 01:46:11;;;;;;;12.27;11.13;;;;;;;21.66;67.53;99989.78;7398518;19;20485;-71
2022/08/15 01:48:46;;;;;;;12.48;11.38;;;;;;;21.63;67.73;99985.53;7399258;19;20018;-71
2022/08/15 01:51:19;;;;;;;11.95;10.85;;;;;;;21.62;67.51;99994.50;7396781;19;20018;-69
2022/08/15 01:53:54;;;;;;;12.98;11.57;;;;;;;21.60;67.68;99991.09;7396265;19;20015;-71
2022/08/15 01:56:30;;;;;;;12.48;11.32;;;;;;;21.58;67.77;99987.69;7399118;19;20022;-70
2022/08/15 01:59:01;;;;;;;12.75;11.50;;;;;;;21.57;67.99;99991.34;7398377;19;20015;-71
2022/08/15 02:01:42;;;;;;;12.88;11.43;;;;;;;21.56;68.25;99986.13;7398345;19;20029;-71
2022/08/15 02:04:12;;;;;;;13.13;11.82;;;;;;;21.53;67.99;99994.34;7397686;19;20023;-71
2022/08/15 02:06:41;;;;;;;12.27;11.02;;;;;;;21.51;68.46;99991.81;7395822;19;20014;-71
2022/08/15 02:09:12;;;;;;;12.70;11.40;;;;;;;21.47;68.26;99988.53;7396273;19;20022;-71
2022/08/15 02:11:44;;;;;;;12.82;11.52;;;;;;;21.46;68.13;99997.50;7398672;19;20032;-71
2022/08/15 02:14:13;;;;;;;13.50;11.50;;;;;;;21.44;68.19;99990.59;7396809;19;20376;-71
2022/08/15 02:16:43;;;;;;;12.20;11.00;;;;;;;21.43;68.73;99988.88;7398102;19;20035;-71
2022/08/15 02:19:15;;;;;;;12.25;11.15;;;;;;;21.41;68.85;99990.84;7397379;19;20482;-71
2022/08/15 02:21:46;;;;;;;13.45;12.07;;;;;;;21.39;68.73;99982.94;7398300;19;20007;-71
2022/08/15 02:24:25;;;;;;;12.90;11.60;;;;;;;21.37;68.81;99987.56;7396591;19;20393;-71
2022/08/15 02:26:56;;;;;;;12.68;11.52;;;;;;;21.37;68.91;99989.38;7397441;19;20018;-71
2022/08/15 02:29:28;;;;;;;13.60;12.27;;;;;;;21.31;68.88;99988.91;7398097;19;20022;-71
2022/08/15 02:32:00;;;;;;;13.32;11.73;;;;;;;21.29;69.00;99985.53;7398179;19;20023;-71
2022/08/15 02:34:29;;;;;;;12.38;11.13;;;;;;;21.28;69.37;99980.28;7396238;19;20018;-71
2022/08/15 02:36:58;;;;;;;13.35;12.00;;;;;;;21.23;69.36;99979.78;7396931;19;20433;-70
2022/08/15 02:39:26;;;;;;;14.00;12.68;;;;;;;21.21;69.66;99977.25;7396951;19;20365;-71
2022/08/15 02:41:57;;;;;;;12.80;11.52;;;;;;;21.18;69.74;99973.97;7396839;19;20022;-71
2022/08/15 02:44:26;;;;;;;14.60;13.02;;;;;;;21.14;69.63;99966.22;7395915;19;20014;-71
2022/08/15 02:47:03;;;;;;;12.65;11.48;;;;;;;21.10;69.82;99971.91;7396251;19;20086;-71
2022/08/15 02:49:33;;;;;;;14.45;12.25;;;;;;;21.05;70.33;99966.94;7397342;19;20079;-71
2022/08/15 02:52:02;;;;;;;13.13;11.82;;;;;;;21.01;70.15;99965.47;7396076;19;20090;-71
2022/08/15 02:54:30;;;;;;;13.55;12.25;;;;;;;20.98;70.43;99963.06;7394914;19;20018;-71
2022/08/15 02:57:01;;;;;;;13.95;12.02;;;;;;;20.93;70.56;99965.25;7396040;19;20072;-70
2022/08/15 02:59:30;;;;;;;14.13;12.80;;;;;;;20.88;70.63;99960.25;7396920;19;20031;-70
2022/08/15 03:01:59;;;;;;;15.07;13.52;;;;;;;20.86;70.77;99953.34;7396416;19;20014;-70
2022/08/15 03:04:30;;;;;;;14.15;12.75;;;;;;;20.80;70.70;99957.31;7393945;19;20014;-70
2022/08/15 03:06:59;;;;;;;14.57;12.95;;;;;;;20.77;71.17;99946.91;7393799;19;20489;-69
2022/08/15 03:09:28;;;;;;;13.98;12.60;;;;;;;20.73;71.08;99950.78;7394288;19;20035;-70
2022/08/15 03:11:57;;;;;;;14.15;12.85;;;;;;;20.67;71.36;99949.41;7396364;19;20032;-70
2022/08/15 03:14:29;;;;;;;14.13;12.73;;;;;;;20.63;71.55;99953.28;7395125;19;20019;-70
2022/08/15 03:16:59;;;;;;;15.23;13.73;;;;;;;20.58;71.44;99950.97;7396570;19;20023;-70
2022/08/15 03:19:27;;;;;;;14.68;13.23;;;;;;;20.52;71.96;99951.41;7396460;19;20025;-70
2022/08/15 03:21:57;;;;;;;14.73;12.95;;;;;;;20.49;72.27;99951.66;7395435;19;20488;-69
2022/08/15 03:24:26;;;;;;;15.25;13.65;;;;;;;20.45;72.12;99944.88;7394825;19;20019;-70
2022/08/15 03:26:54;;;;;;;14.32;12.82;;;;;;;20.43;72.07;99950.31;7396232;19;20018;-70
2022/08/15 03:29:23;;;;;;;14.45;13.05;;;;;;;20.39;72.12;99951.50;7393801;19;20027;-70
2022/08/15 03:31:54;;;;;;;14.90;13.35;;;;;;;20.38;72.57;99954.28;7395098;19;20025;-71
2022/08/15 03:34:26;;;;;;;15.65;14.15;;;;;;;20.34;72.71;99962.50;7394126;19;20039;-70
2022/08/15 03:36:55;;;;;;;15.63;14.02;;;;;;;20.33;73.12;99958.16;7395151;19;20410;-70
2022/08/15 03:39:23;;;;;;;16.60;14.32;;;;;;;20.31;72.94;99957.41;7393148;19;20015;-71
2022/08/15 03:41:52;;;;;;;15.25;13.65;;;;;;;20.31;72.95;99952.09;7393066;19;20018;-70
2022/08/15 03:44:21;;;;;;;14.65;13.15;;;;;;;20.30;73.53;99953.06;7393705;19;20026;-69
2022/08/15 03:46:49;;;;;;;14.95;13.45;;;;;;;20.29;73.67;99946.00;7394714;19;20018;-68
2022/08/15 03:49:21;;;;;;;15.65;13.80;;;;;;;20.29;73.61;99956.66;7393271;19;20023;-69
2022/08/15 03:51:49;;;;;;;17.65;13.95;;;;;;;20.29;73.82;99962.00;7392844;19;20037;-70
2022/08/15 03:54:18;;;;;;;15.32;13.55;;;;;;;20.27;73.75;99955.97;7393491;19;20035;-69
2022/08/15 03:56:47;;;;;;;15.73;13.98;;;;;;;20.27;73.69;99955.09;7394295;19;20021;-69
2022/08/15 03:59:16;;;;;;;16.77;14.82;;;;;;;20.25;74.27;99960.53;7392948;19;20082;-71
2022/08/15 04:01:44;;;;;;;16.48;14.88;;;;;;;20.26;74.21;99959.56;7394427;19;20023;-71
2022/08/15 04:04:13;;;;;;;15.18;13.48;;;;;;;20.24;74.15;99961.50;7392400;19;20039;-71
2022/08/15 04:06:44;;;;;;;16.25;14.68;;;;;;;20.25;74.02;99960.53;7393427;19;20082;-71
2022/08/15 04:09:12;;;;;;;16.55;14.95;;;;;;;20.24;74.42;99960.66;7393582;19;20018;-71
2022/08/15 04:11:41;;;;;;;15.82;14.13;;;;;;;20.24;74.65;99960.66;7391733;19;20082;-71
2022/08/15 04:14:10;;;;;;;16.23;14.63;;;;;;;20.24;74.30;99958.84;7392617;19;20485;-71
2022/08/15 04:16:39;;;;;;;16.33;14.65;;;;;;;20.23;74.78;99958.97;7397696;19;20014;-71
2022/08/15 04:19:07;;;;;;;17.33;15.27;;;;;;;20.22;74.68;99960.78;7398754;19;20031;-71
2022/08/15 04:21:36;;;;;;;17.02;15.20;;;;;;;20.21;75.08;99956.41;7401354;19;20035;-71
2022/08/15 04:24:07;;;;;;;16.77;15.18;;;;;;;20.21;74.95;99958.22;7399977;19;20455;-70
2022/08/15 04:26:37;;;;;;;18.02;15.70;;;;;;;20.20;75.19;99962.69;7401876;19;20026;-71
2022/08/15 04:29:05;;;;;;;16.80;15.10;;;;;;;20.19;75.35;99958.34;7398365;19;20015;-70
2022/08/15 04:31:34;;;;;;;18.88;16.90;;;;;;;20.19;74.90;99961.00;7401168;19;20022;-71
2022/08/15 04:34:03;;;;;;;18.17;16.33;;;;;;;20.18;75.19;99970.81;7399301;19;20014;-71
2022/08/15 04:36:32;;;;;;;18.40;16.42;;;;;;;20.18;75.18;99961.94;7397803;19;20419;-71
2022/08/15 04:39:00;;;;;;;18.80;16.92;;;;;;;20.18;75.23;99965.47;7401530;19;20015;-71
2022/08/15 04:41:32;;;;;;;16.92;15.05;;;;;;;20.18;75.55;99965.47;7401207;19;20026;-71
2022/08/15 04:44:02;;;;;;;20.67;17.08;;;;;;;20.18;75.51;99970.81;7399529;19;20355;-71
2022/08/15 04:46:30;;;;;;;17.40;15.70;;;;;;;20.21;75.48;99961.75;7400570;19;20422;-71
2022/08/15 04:48:59;;;;;;;20.98;16.40;;;;;;;20.21;75.61;99960.88;7397989;19;20014;-71
2022/08/15 04:51:27;;;;;;;22.17;16.63;;;;;;;20.21;75.78;99964.41;7397985;19;20023;-71
2022/08/15 04:53:56;;;;;;;16.92;15.18;;;;;;;20.21;75.43;99963.53;7397317;19;20015;-71
2022/08/15 04:56:24;;;;;;;19.55;15.52;;;;;;;20.23;75.59;99973.09;7399391;19;20023;-71
2022/08/15 04:58:56;;;;;;;19.17;16.80;;;;;;;20.24;75.78;99969.50;7398793;19;20373;-69
2022/08/15 05:01:24;;;;;;;18.30;16.55;;;;;;;20.26;75.67;99978.22;7397612;19;20019;-70
2022/08/15 05:03:53;;;;;;;18.67;16.05;;;;;;;20.29;75.81;99975.31;7398644;19;20031;-70
2022/08/15 05:06:21;;;;;;;18.15;16.17;;;;;;;20.30;75.84;99985.00;7399551;19;20485;-70
2022/08/15 05:08:50;;;;;;;37.13;29.52;;;;;;;20.30;76.05;99985.00;7398346;19;20031;-70
2022/08/15 05:11:20;;;;;;;64.82;47.90;;;;;;;20.34;75.48;99986.47;7399250;19;20453;-70
2022/08/15 05:13:49;;;;;;;20.63;18.27;;;;;;;20.39;75.92;99977.31;7396790;19;20086;-70
2022/08/15 05:16:20;;;;;;;19.45;17.17;;;;;;;20.41;75.72;99975.38;7399341;19;20022;-70
2022/08/15 05:18:49;;;;;;;19.45;17.45;;;;;;;20.44;75.70;99973.31;7396869;19;20489;-70
2022/08/15 05:21:17;;;;;;;19.17;17.17;;;;;;;20.47;75.75;99975.78;7399445;19;20383;-69
2022/08/15 05:23:46;;;;;;;23.15;18.73;;;;;;;20.51;75.64;99976.38;7396328;19;20019;-69
2022/08/15 05:26:15;;;;;;;18.80;16.90;;;;;;;20.53;75.78;99969.09;7398121;19;20384;-70
2022/08/15 05:28:44;;;;;;;19.75;17.08;;;;;;;20.58;75.54;99974.94;7397927;19;20022;-70
2022/08/15 05:31:14;;;;;;;19.13;17.17;;;;;;;20.63;75.28;99979.94;7399359;19;20096;-70
2022/08/15 05:33:47;;;;;;;19.23;17.23;;;;;;;20.66;75.84;99972.56;7398346;19;20014;-71
2022/08/15 05:36:18;;;;;;;27.48;22.83;;;;;;;20.71;75.27;99968.72;7396671;19;20035;-70
2022/08/15 05:38:51;;;;;;;18.38;16.20;;;;;;;20.74;75.41;99963.13;7399371;19;20028;-71
2022/08/15 05:41:31;;;;;;;21.48;19.17;;;;;;;20.79;75.58;99964.50;7396289;19;20485;-71
2022/08/15 05:44:05;;;;;;;28.05;22.98;;;;;;;20.83;75.09;99957.94;7397729;19;20031;-70
2022/08/15 05:46:45;;;;;;;20.27;17.75;;;;;;;20.86;75.08;99956.03;7399432;19;20019;-70
2022/08/15 05:49:28;;;;;;;20.02;17.88;;;;;;;20.91;75.43;99962.69;7397362;19;20435;-70
2022/08/15 05:52:06;;;;;;;19.73;17.60;;;;;;;20.96;75.45;99967.66;7398633;19;20070;-71
2022/08/15 05:54:48;;;;;;;17.92;16.15;;;;;;;21.00;75.04;99961.09;7397246;19;20018;-70
2022/08/15 05:57:22;;;;;;;20.15;17.58;;;;;;;21.04;75.07;99961.72;7396010;19;20025;-70
2022/08/15 05:59:55;;;;;;;17.52;15.73;;;;;;;21.09;75.28;99960.41;7395570;19;20027;-71
2022/08/15 06:02:30;;;;;;;19.75;16.85;;;;;;;21.12;75.09;99952.16;7395385;19;20014;-71
2022/08/15 06:05:08;;;;;;;18.88;16.88;;;;;;;21.18;74.81;99949.97;7395752;19;20025;-70
2022/08/15 06:07:36;;;;;;;20.60;17.60;;;;;;;21.19;74.92;99947.19;7397592;19;20022;-71
2022/08/15 06:10:13;;;;;;;18.63;16.77;;;;;;;21.21;75.09;99947.09;7397353;19;20078;-70
2022/08/15 06:12:51;;;;;;;19.63;17.52;;;;;;;21.23;75.24;99937.13;7397309;19;20014;-69
2022/08/15 06:15:25;;;;;;;18.90;17.00;;;;;;;21.26;74.78;99934.22;7395027;19;20023;-71
2022/08/15 06:17:57;;;;;;;21.48;18.73;;;;;;;21.29;75.27;99933.97;7396867;19;20510;-71
2022/08/15 06:20:42;;;;;;;19.45;17.35;;;;;;;21.35;74.62;99941.47;7397631;19;20022;-71
2022/08/15 06:23:22;;;;;;;19.40;17.15;;;;;;;21.37;74.95;99936.88;7395126;19;20134;-70
2022/08/15 06:26:11;;;;;;;18.92;16.80;;;;;;;21.43;75.02;99939.06;7394888;19;20035;-69
2022/08/15 06:29:03;;;;;;;18.98;17.17;;;;;;;21.48;74.90;99941.34;7395521;19;20018;-70
2022/08/15 06:31:35;;;;;;;20.10;18.00;;;;;;;21.52;74.39;99944.63;7398368;19;20115;-70
2022/08/15 06:34:12;;;;;;;20.35;18.33;;;;;;;21.56;74.61;99944.28;7395386;19;20019;-70
2022/08/15 06:36:52;;;;;;;20.42;18.20;;;;;;;21.59;74.86;99944.03;7396967;19;20022;-70
2022/08/15 06:39:31;;;;;;;21.55;19.42;;;;;;;21.62;74.41;99934.91;7394971;19;20031;-70
2022/08/15 06:42:09;;;;;;;20.83;18.63;;;;;;;21.64;74.59;99939.16;7394954;19;20509;-71
2022/08/15 06:44:37;;;;;;;20.15;17.83;;;;;;;21.67;73.90;99940.72;7395235;19;20518;-71
2022/08/15 06:47:07;;;;;;;19.70;17.80;;;;;;;21.70;73.98;99943.16;7396337;19;20490;-71
2022/08/15 06:49:41;;;;;;;21.05;18.85;;;;;;;21.73;74.00;99936.72;7395494;19;20011;-71
2022/08/15 06:52:15;;;;;;;20.20;18.10;;;;;;;21.77;74.36;99938.16;7396058;19;20032;-71
2022/08/15 06:54:45;;;;;;;20.63;18.42;;;;;;;21.80;73.64;99940.59;7394909;19;20026;-71
2022/08/15 06:57:21;;;;;;;21.38;18.33;;;;;;;21.83;73.84;99937.66;7394227;19;20027;-70
2022/08/15 07:00:04;;;;;;;21.13;19.13;;;;;;;21.86;73.69;99932.06;7396401;19;20022;-71
2022/08/15 07:02:48;;;;;;;20.45;18.30;;;;;;;21.90;73.95;99930.00;7394826;19;20374;-71
2022/08/15 07:05:24;;;;;;;20.35;18.25;;;;;;;21.93;73.64;99922.56;7393326;19;20019;-70
2022/08/15 07:08:05;;;;;;;22.55;18.52;;;;;;;21.96;73.85;99919.66;7395602;19;20070;-71
2022/08/15 07:10:42;;;;;;;20.02;18.02;;;;;;;22.01;73.27;99921.09;7396424;19;20083;-71
2022/08/15 07:13:16;;;;;;;18.95;17.08;;;;;;;22.06;73.12;99916.22;7395730;19;20011;-71
2022/08/15 07:15:55;;;;;;;18.77;16.88;;;;;;;22.13;73.46;99920.91;7394853;19;20493;-71
2022/08/15 07:18:39;;;;;;;20.80;17.92;;;;;;;22.20;73.26;99915.91;7394565;19;20036;-71
2022/08/15 07:21:11;;;;;;;19.70;17.67;;;;;;;22.27;73.16;99914.41;7395052;19;20010;-70
2022/08/15 07:24:03;;;;;;;18.98;16.27;;;;;;;22.34;72.62;99916.56;7393650;19;20070;-71
2022/08/15 07:26:33;;;;;;;19.50;16.55;;;;;;;22.41;72.73;99915.13;7395163;19;20348;-71
2022/08/15 07:29:10;;;;;;;17.73;15.90;;;;;;;22.49;72.39;99911.78;7394695;19;20035;-71
2022/08/15 07:31:39;;;;;;;18.67;16.73;;;;;;;22.55;72.03;99908.59;7395158;19;20078;-71
2022/08/15 07:34:18;;;;;;;18.27;16.25;;;;;;;22.61;72.21;99908.91;7394332;19;20082;-70
2022/08/15 07:36:57;;;;;;;18.38;16.13;;;;;;;22.67;71.47;99904.88;7394818;19;20035;-71
2022/08/15 07:39:32;;;;;;;20.33;17.42;;;;;;;22.74;71.69;99910.53;7395458;19;20022;-70
2022/08/15 07:42:11;;;;;;;18.50;16.63;;;;;;;22.78;71.43;99906.59;7395092;19;20010;-70
2022/08/15 07:44:41;;;;;;;19.02;17.10;;;;;;;22.82;70.89;99902.69;7393562;19;20082;-71
2022/08/15 07:47:21;;;;;;;22.20;18.50;;;;;;;22.86;70.63;99904.13;7395333;19;20011;-69
2022/08/15 07:50:00;;;;;;;19.45;17.20;;;;;;;22.90;70.45;99905.53;7393385;19;20022;-70
2022/08/15 07:52:29;;;;;;;20.00;17.23;;;;;;;22.95;70.48;99899.81;7394847;19;20015;-68
2022/08/15 07:55:13;;;;;;;19.20;16.55;;;;;;;22.99;69.97;99892.34;7393794;19;20011;-69
2022/08/15 07:57:42;;;;;;;18.98;16.20;;;;;;;23.05;70.12;99897.16;7394955;19;20366;-70
2022/08/15 08:00:19;;;;;;;22.70;18.88;;;;;;;23.13;69.45;99893.78;7394768;19;20070;-69
2022/08/15 08:02:51;;;;;;;20.95;17.17;;;;;;;23.18;69.48;99902.31;7394941;19;20018;-69
2022/08/15 08:05:23;;;;;;;21.40;18.40;;;;;;;23.21;69.33;99900.19;7392859;19;20014;-70
2022/08/15 08:07:53;;;;;;;18.55;16.33;;;;;;;23.29;69.10;99898.69;7392813;19;20018;-70
2022/08/15 08:10:34;;;;;;;19.35;17.33;;;;;;;23.36;68.56;99899.84;7392071;19;20023;-70
2022/08/15 08:13:15;;;;;;;21.27;18.17;;;;;;;23.43;68.41;99901.00;7393396;19;20037;-71
2022/08/15 08:15:52;;;;;;;19.77;17.67;;;;;;;23.48;68.40;99898.75;7394266;19;20018;-70
2022/08/15 08:18:29;;;;;;;18.65;16.75;;;;;;;23.53;67.67;99891.16;7394727;19;20015;-70
2022/08/15 08:21:04;;;;;;;19.75;17.48;;;;;;;23.61;67.44;99897.63;7393770;19;20018;-70
2022/08/15 08:23:42;;;;;;;17.42;15.63;;;;;;;23.67;67.39;99897.06;7393856;19;20018;-70
2022/08/15 08:26:40;;;;;;;17.50;15.73;;;;;;;23.72;67.25;99894.81;7394056;19;20018;-68
2022/08/15 08:29:15;;;;;;;19.58;16.50;;;;;;;23.80;67.03;99896.81;7393154;19;20015;-70
2022/08/15 08:31:53;;;;;;;17.23;15.32;;;;;;;23.88;66.85;99886.22;7391549;19;20073;-69
2022/08/15 08:34:28;;;;;;;18.02;15.98;;;;;;;23.95;66.09;99883.88;7392231;19;20022;-69
2022/08/15 08:37:04;;;;;;;19.30;17.25;;;;;;;24.01;65.93;99886.84;7390703;19;20485;-69
2022/08/15 08:39:46;;;;;;;16.48;14.80;;;;;;;24.11;65.60;99885.97;7391067;19;20015;-69
2022/08/15 08:42:28;;;;;;;17.80;15.90;;;;;;;24.17;65.15;99883.56;7393675;19;20108;-70
2022/08/15 08:45:06;;;;;;;18.38;16.67;;;;;;;24.24;64.62;99884.69;7391958;19;20150;-70
2022/08/15 08:47:59;;;;;;;17.23;15.52;;;;;;;24.33;64.59;99887.53;7394458;19;20015;-69
2022/08/15 08:50:40;;;;;;;18.15;16.27;;;;;;;24.40;64.59;99881.44;7391548;19;20423;-69
2022/08/15 08:53:47;;;;;;;18.40;16.50;;;;;;;24.48;64.14;99882.53;7391142;19;20023;-70
2022/08/15 08:56:26;;;;;;;21.95;16.52;;;;;;;24.56;63.50;99877.31;7393394;19;20086;-70
2022/08/15 08:59:05;;;;;;;16.83;15.07;;;;;;;24.63;63.65;99877.56;7390404;19;20018;-70
2022/08/15 09:01:35;;;;;;;17.52;15.70;;;;;;;24.69;63.02;99877.88;7395873;19;20358;-70
2022/08/15 09:04:08;;;;;;;16.73;15.02;;;;;;;24.76;63.22;99872.75;7399541;19;20038;-69
2022/08/15 09:06:40;;;;;;;19.58;15.10;;;;;;;24.83;62.83;99873.00;7398184;19;20032;-69
2022/08/15 09:09:13;;;;;;;17.70;15.97;;;;;;;24.89;62.01;99867.88;7399307;19;20489;-69
2022/08/15 09:11:49;;;;;;;17.85;15.90;;;;;;;24.97;62.11;99869.84;7400309;19;20024;-69
2022/08/15 09:14:27;;;;;;;16.75;15.05;;;;;;;25.05;61.82;99864.56;7398394;19;20420;-69
2022/08/15 09:17:00;;;;;;;16.42;14.73;;;;;;;25.14;61.16;99862.00;7397768;19;20081;-69
2022/08/15 09:19:29;;;;;;;;;;;;;;;25.21;60.70;99874.69;7399725;19;20494;-70
2022/08/15 09:21:58;;;;;;;15.95;14.40;;;;;;;25.28;61.30;99866.84;7399376;19;19922;-69
2022/08/15 09:24:27;;;;;;;15.82;13.63;;;;;;;25.34;60.55;99866.25;7397894;19;20086;-69
2022/08/15 09:27:01;;;;;;;19.58;13.75;;;;;;;25.42;59.98;99868.22;7399573;19;20035;-68
2022/08/15 09:29:34;;;;;;;15.15;13.55;;;;;;;25.50;60.12;99867.44;7398551;19;20028;-69
2022/08/15 09:32:10;;;;;;;;;;;;;;;25.55;59.62;99864.31;7399834;19;20015;-68
2022/08/15 09:35:01;;;;;;;13.85;12.43;;;;;;;25.62;58.59;99862.72;7396894;19;19929;-68
2022/08/15 09:37:48;;;;;;;14.15;12.73;;;;;;;25.69;58.63;99864.66;7399351;19;20031;-69
2022/08/15 09:40:36;;;;;;;12.57;11.43;;;;;;;25.76;58.59;99864.03;7397132;19;20018;-69
2022/08/15 09:43:30;;;;;;;14.63;12.40;;;;;;;25.82;57.93;99872.31;7398557;19;20544;-70
2022/08/15 09:46:28;;;;;;;13.25;11.38;;;;;;;25.88;56.50;99861.94;7399781;19;20094;-69
2022/08/15 09:49:10;;;;;;;12.30;10.65;;;;;;;25.96;57.28;99868.25;7398361;19;20073;-70
2022/08/15 09:52:00;;;;;;;12.20;10.90;;;;;;;26.04;56.37;99867.47;7398533;19;20028;-69
2022/08/15 09:54:33;;;;;;;11.32;9.90;;;;;;;26.13;56.65;99860.34;7394684;19;20019;-69
2022/08/15 09:57:25;;;;;;;11.10;9.93;;;;;;;26.22;54.88;99858.56;7399127;19;20019;-69
2022/08/15 09:59:59;;;;;;;10.60;9.50;;;;;;;26.30;54.78;99858.63;7396549;19;20031;-69
2022/08/15 10:02:34;;;;;;;10.65;9.65;;;;;;;26.38;55.11;99850.59;7398619;19;20027;-70
2022/08/15 10:05:16;;;;;;;10.50;9.32;;;;;;;26.49;54.40;99846.81;7396456;19;20473;-69
2022/08/15 10:07:51;;;;;;;10.05;9.05;;;;;;;26.59;53.18;99844.00;7398575;19;20011;-70
2022/08/15 10:10:23;;;;;;;10.27;8.90;;;;;;;26.66;53.85;99840.53;7397034;19;20045;-70
2022/08/15 10:13:28;;;;;;;9.05;8.30;;;;;;;26.75;52.74;99838.72;7397668;19;20011;-69
2022/08/15 10:15:58;;;;;;;9.98;8.65;;;;;;;26.85;52.87;99827.03;7397213;19;20007;-69
2022/08/15 10:18:58;;;;;;;9.48;8.57;;;;;;;26.92;51.60;99828.91;7398073;19;20027;-70
2022/08/15 10:21:39;;;;;;;9.25;8.15;;;;;;;27.00;51.90;99820.00;7395330;19;20034;-70
2022/08/15 10:24:24;;;;;;;11.35;9.18;;;;;;;27.07;52.11;99817.50;7394830;19;20076;-68
2022/08/15 10:27:19;;;;;;;9.23;8.32;;;;;;;27.12;51.27;99817.84;7396005;19;20027;-67
2022/08/15 10:29:52;;;;;;;10.65;9.68;;;;;;;27.20;51.54;99817.06;7397145;19;20023;-67
2022/08/15 10:32:40;;;;;;;;;;;;;;;27.24;51.10;99821.09;7397474;19;20018;-68
2022/08/15 10:35:18;;;;;;;9.93;9.02;;;;;;;27.34;51.13;99812.88;7394463;19;19919;-69
2022/08/15 10:37:54;;;;;;;9.40;8.50;;;;;;;27.43;50.52;99815.44;7394510;19;20018;-68
2022/08/15 10:40:37;;;;;;;9.65;8.75;;;;;;;27.53;50.73;99814.47;7399222;19;20078;-69
2022/08/15 10:43:32;;;;;;;9.70;8.57;;;;;;;27.61;50.16;99799.16;7395434;19;20046;-70
2022/08/15 10:46:08;;;;;;;10.05;8.38;;;;;;;27.70;49.96;99794.59;7397090;19;20015;-69
2022/08/15 10:48:50;;;;;;;9.52;8.43;;;;;;;27.80;49.54;99800.66;7396090;19;20018;-67
2022/08/15 10:51:37;;;;;;;8.68;7.88;;;;;;;27.88;49.31;99801.66;7394692;19;20022;-67
2022/08/15 10:54:20;;;;;;;9.18;8.38;;;;;;;27.95;48.90;99803.53;7395187;19;20024;-68
2022/08/15 10:56:52;;;;;;;11.13;9.52;;;;;;;28.00;49.29;99802.16;7397100;19;20019;-68
2022/08/15 10:59:24;;;;;;;11.15;9.18;;;;;;;28.03;48.25;99802.69;7396997;19;20039;-69
2022/08/15 11:01:53;;;;;;;9.68;8.02;;;;;;;28.06;48.42;99798.81;7395815;19;20082;-68
2022/08/15 11:04:31;;;;;;;8.93;8.18;;;;;;;28.06;47.66;99794.25;7394217;19;20022;-69
2022/08/15 11:07:02;;;;;;;9.20;8.18;;;;;;;28.05;47.78;99800.66;7396141;19;20423;-69
2022/08/15 11:09:33;;;;;;;8.93;8.02;;;;;;;28.07;47.43;99792.41;7395081;19;20030;-69
2022/08/15 11:12:07;;;;;;;13.57;8.90;;;;;;;28.10;46.78;99792.91;7396295;19;20021;-68
2022/08/15 11:14:43;;;;;;;10.43;9.30;;;;;;;28.17;46.92;99793.06;7394597;19;20025;-68
2022/08/15 11:17:18;;;;;;;9.50;7.97;;;;;;;28.25;46.81;99786.81;7394344;19;20101;-69
2022/08/15 11:19:51;;;;;;;10.65;8.88;;;;;;;28.37;46.61;99790.84;7395582;19;20018;-68
2022/08/15 11:22:30;;;;;;;;;;;;;;;28.50;46.78;99789.44;7395488;19;20021;-72
2022/08/15 11:25:03;;;;;;;9.30;8.43;;;;;;;28.58;46.44;99776.75;7392098;19;19943;-69
2022/08/15 11:27:31;;;;;;;;;;;;;;;28.64;45.95;99777.06;7395690;19;20014;-69
2022/08/15 11:30:00;;;;;;;8.90;8.10;;;;;;;28.64;46.44;99771.66;7394105;19;20284;-69
2022/08/15 11:32:32;;;;;;;8.05;7.28;;;;;;;28.65;45.94;99774.22;7394682;19;20018;-68
2022/08/15 11:35:02;;;;;;;9.82;8.27;;;;;;;28.64;45.76;99775.22;7393718;19;20022;-67
2022/08/15 11:37:34;;;;;;;8.23;7.50;;;;;;;28.65;45.52;99766.13;7394391;19;20015;-69
2022/08/15 11:40:10;;;;;;;9.38;8.35;;;;;;;28.69;45.12;99770.19;7394576;19;20420;-69
2022/08/15 11:42:42;;;;;;;8.82;7.90;;;;;;;28.79;44.98;99769.13;7394518;19;20027;-68
2022/08/15 11:45:18;;;;;;;8.98;8.10;;;;;;;28.91;44.89;99762.31;7392926;19;20026;-68
2022/08/15 11:47:49;;;;;;;9.10;8.20;;;;;;;29.03;44.80;99763.59;7394431;19;20387;-69
2022/08/15 11:50:27;;;;;;;8.43;7.72;;;;;;;29.17;44.06;99763.84;7393317;19;20481;-68
2022/08/15 11:53:00;;;;;;;7.80;7.10;;;;;;;29.27;43.37;99764.47;7394309;19;20086;-69